Latest Coastal Weather Observations for Warrnambool

IDV60701

Issued at 6:32 pm EST Sunday 25 June 2017 (issued every 10 minutes, with the page automatically refreshed every 10 minutes)

About coastal observations | Map of coastal stations | Coastal observations for VIC | Marine services | Other Formats
Station Details ID: 090186 Name: WARRNAMBOOL AIRPORT NDB Lat: -38.29 Lon: 142.45 Height: 70.8 m
Data from the previous 72 hours. | See also: Recent months at Warrnambool
Date/Time
EST
Temp
°C
Wind Pressure Rain since
9am
mm
Weather Cloud Vis
km
Sea
Height
m
Swell
Dir  Spd
kts
Gust
kts
hPa Trend Height
m
Period
s
Dir
25/06:30pm 10.0 WNW 8 11 1016.6 - 3.6 - Partly cloudy 10 - - - -
25/06:22pm 10.0 WNW 9 11 1016.5 - 3.6 - Partly cloudy 10 - - - -
25/06:10pm 10.1 WNW 9 11 1016.5 - 3.6 - Partly cloudy 5 - - - -
25/06:00pm 10.1 WNW 8 12 1016.2 - 3.4 Rain Cloudy 10 - - - -
25/05:39pm 10.1 W 11 16 1016.1 - 3.4 - Partly cloudy 8 - - - -
25/05:30pm 10.2 W 11 14 1016.0 - 3.2 - Partly cloudy 7 - - - -
25/05:19pm 10.5 W 10 14 1015.9 - 2.6 - Partly cloudy 8 - - - -
25/05:17pm 10.7 W 9 13 1015.8 - 2.4 - Partly cloudy 10 - - - -
25/05:01pm 11.0 W 8 11 1015.6 - 1.8 - Partly cloudy 10 - - - -
25/05:00pm 11.0 W 8 11 1015.6 - 1.6 - Partly cloudy 10 - - - -
25/04:30pm 10.9 WNW 9 15 1015.2 - 1.6 - Partly cloudy 10 - - - -
25/04:00pm 10.6 WSW 13 16 1015.3 - 1.2 - Partly cloudy 10 - - - -
25/03:30pm 10.9 W 14 20 1014.9 - 1.0 - Partly cloudy 10 - - - -
25/03:28pm 10.9 W 16 26 1014.9 - 1.0 - Partly cloudy 10 - - - -
25/03:00pm 11.6 WNW 12 17 1014.7 - 0.4 Showers Cloudy 10 - - - -
25/02:30pm 11.5 WNW 12 19 1014.5 - 0.2 - Partly cloudy 8 - - - -
25/02:00pm 12.9 NW 14 22 1014.4 - 0.0 - Partly cloudy 10 - - - -
25/01:30pm 12.0 NW 17 24 1014.6 - 0.0 - Partly cloudy 10 - - - -
25/01:18pm 12.3 NW 16 26 1014.7 - 0.0 - Partly cloudy 10 - - - -
25/01:00pm 12.1 NW 18 23 1014.7 - 0.0 - Partly cloudy 10 - - - -
25/12:30pm 11.3 NW 17 23 1015.0 - 0.0 - Partly cloudy 10 - - - -
25/12:00pm 11.0 NW 18 24 1015.4 - 0.0 - Cloudy 10 - - - -
25/11:30am 10.7 NW 18 24 1015.6 - 0.0 - Partly cloudy 10 - - - -
25/11:00am 10.4 NW 17 22 1015.7 - 0.0 - Partly cloudy 10 - - - -
25/10:30am 10.1 NW 16 24 1015.9 - 0.0 - Partly cloudy 10 - - - -
25/10:00am 9.2 NNW 13 18 1016.0 - 0.0 - Partly cloudy 10 - - - -
25/09:30am 8.7 NNW 13 18 1015.7 - 0.0 - Partly cloudy 10 - - - -
25/09:00am 8.5 NNW 9 12 1015.7 - 0.0 - Cloudy 10 - - - -
25/08:30am 7.3 NNW 7 10 1015.7 - 0.0 - Partly cloudy 10 - - - -
25/08:00am 6.4 N 10 12 1015.5 - 0.0 - Partly cloudy 10 - - - -
25/07:30am 6.9 N 11 13 1015.4 - 0.0 - Cloudy 10 - - - -
25/07:00am 6.9 NNW 10 12 1015.3 - 0.0 - Partly cloudy 10 - - - -
25/06:30am 6.4 N 8 12 1015.2 - 0.0 - Partly cloudy 10 - - - -
25/06:00am 6.7 NNW 9 11 1015.1 - 0.0 - Mostly cloudy 10 - - - -
25/05:30am 6.9 NNW 9 13 1015.0 - 0.0 - Partly cloudy 10 - - - -
25/05:00am 7.7 NNW 11 14 1015.1 - 0.0 - Cloudy 10 - - - -
25/04:30am 7.3 NNW 9 13 1015.3 - 0.0 - Cloudy 10 - - - -
25/04:00am 7.4 NNW 11 14 1015.5 - 0.0 - Partly cloudy 10 - - - -
25/03:30am 7.0 NNW 10 14 1015.7 - 0.0 - Partly cloudy 10 - - - -
25/03:00am 7.1 NNW 12 15 1015.7 - 0.0 - Cloudy 10 - - - -
25/02:30am 5.3 NNW 9 11 1015.9 - 0.0 - - 10 - - - -
25/02:00am 5.0 NNW 8 9 1016.0 - 0.0 - Partly cloudy 10 - - - -
25/01:30am 5.5 NNW 8 11 1016.2 - 0.0 - Partly cloudy 10 - - - -
25/01:00am 5.7 NNW 9 10 1016.3 - 0.0 - Partly cloudy 10 - - - -
25/12:30am 6.2 NNW 11 14 1016.5 - 0.0 - Partly cloudy 10 - - - -
25/12:00am 6.1 NNW 12 15 1016.5 - 0.0 - Mostly clear 10 - - - -
 
Date/Time
EST
Temp
°C
Wind Pressure Rain since
9am
mm
Weather Cloud Vis
km
Sea
Height
m
Swell
Dir  Spd
kts
Gust
kts
hPa Trend Height
m
Period
s
Dir
24/11:30pm 5.7 NNW 11 13 1016.7 - 0.0 - - 10 - - - -
24/11:00pm 5.6 NNW 12 15 1016.8 - 0.0 - Partly cloudy 10 - - - -
24/10:30pm 5.5 NNW 9 12 1016.9 - 0.0 - Partly cloudy 10 - - - -
24/10:00pm 5.9 NNW 10 12 1017.0 - 0.0 - - 10 - - - -
24/09:30pm 6.4 NNW 9 11 1017.2 - 0.0 - Cloudy 10 - - - -
24/09:00pm 7.0 NNW 8 10 1017.3 - 0.0 - Cloudy 10 - - - -
24/08:30pm 5.0 N 8 9 1017.2 - 0.0 - Partly cloudy 10 - - - -
24/08:00pm 6.0 NNW 7 8 1017.6 - 0.0 - Partly cloudy 10 - - - -
24/07:30pm 6.4 NNW 7 9 1017.6 - 0.0 - Cloudy 10 - - - -
24/07:00pm 5.2 NNW 6 7 1017.6 - 0.0 - Partly cloudy 10 - - - -
24/06:30pm 6.5 NNW 6 7 1017.5 - 0.0 - Partly cloudy 10 - - - -
24/06:00pm 6.3 NNW 8 9 1017.6 - 0.0 - Cloudy 10 - - - -
24/05:30pm 6.7 NNW 7 8 1017.6 - 0.0 - Partly cloudy 10 - - - -
24/05:00pm 8.3 NW 5 8 1017.6 - 0.0 - Partly cloudy 10 - - - -
24/04:30pm 8.7 WNW 7 11 1017.8 - 0.0 - Partly cloudy 10 - - - -
24/04:00pm 9.2 W 7 10 1017.6 - 0.0 - Partly cloudy 10 - - - -
24/03:30pm 10.0 W 8 10 1017.6 - 0.0 - Partly cloudy 10 - - - -
24/03:00pm 10.9 W 7 9 1017.5 - 0.0 Rain Mostly cloudy 10 - - - -
24/02:30pm 10.1 WNW 9 21 1017.6 - 0.0 - Partly cloudy 10 - - - -
24/02:00pm 10.4 WNW 7 11 1017.8 - 0.0 - Cloudy 10 - - - -
24/01:30pm 10.1 WNW 7 11 1018.1 - 0.0 - Partly cloudy 10 - - - -
24/01:00pm 11.5 NW 8 12 1018.3 - 0.0 - Partly cloudy 10 - - - -
24/12:30pm 11.1 WNW 8 11 1018.5 - 0.0 - Cloudy 10 - - - -
24/12:00pm 10.2 WNW 7 11 1018.8 - 0.0 - Cloudy 10 - - - -
24/11:30am 9.9 WNW 11 15 1019.1 - 0.0 - Partly cloudy 10 - - - -
24/11:00am 10.3 W 5 7 1019.4 - 0.0 - Partly cloudy 10 - - - -
24/10:30am 9.9 W 10 13 1019.6 - 0.0 - Partly cloudy 10 - - - -
24/10:00am 8.8 NW 10 14 1019.3 - 0.0 - Partly cloudy 10 - - - -
24/09:30am 8.3 NW 10 12 1019.2 - 0.0 - Partly cloudy 10 - - - -
24/09:00am 6.9 NW 9 11 1019.1 - 5.0 - Partly cloudy 10 - - - -
24/08:30am 6.0 NW 8 10 1019.1 - 5.0 - Partly cloudy 10 - - - -
24/08:00am 6.4 NW 8 11 1018.7 - 5.0 - Partly cloudy 10 - - - -
24/07:30am 5.7 NNW 7 7 1018.5 - 4.8 - Partly cloudy 10 - - - -
24/07:00am 6.7 WNW 7 11 1018.3 - 4.8 - Partly cloudy 10 - - - -
24/06:30am 6.4 W 8 9 1017.9 - 4.8 - Partly cloudy 10 - - - -
24/06:00am 7.2 WNW 6 9 1017.6 - 4.8 Rain Cloudy 10 - - - -
24/05:30am 7.2 WSW 8 12 1017.4 - 4.4 - Partly cloudy 10 - - - -
24/05:00am 5.3 WNW 6 7 1016.9 - 4.0 - Partly cloudy 10 - - - -
24/04:30am 5.3 W 7 8 1017.0 - 4.0 - Partly cloudy 10 - - - -
24/04:00am 6.1 SW 6 9 1016.9 - 4.0 - Partly cloudy 10 - - - -
24/03:30am 7.9 SW 9 14 1016.8 - 4.0 - Partly cloudy 10 - - - -
24/03:00am 7.9 WSW 8 11 1016.9 - 4.0 Rain Cloudy 10 - - - -
24/02:30am 8.0 WSW 6 8 1017.0 - 4.0 - Partly cloudy 10 - - - -
24/02:00am 8.5 WSW 8 9 1016.7 - 3.8 - Partly cloudy 10 - - - -
24/01:30am 9.1 SW 10 14 1016.6 - 3.8 - Partly cloudy 10 - - - -
24/01:00am 9.0 SW 11 18 1016.5 - 3.8 - Partly cloudy 10 - - - -
24/12:30am 9.1 SW 12 15 1016.6 - 3.8 - Partly cloudy 10 - - - -
24/12:00am 9.4 SSW 12 17 1016.5 - 3.8 Rain Cloudy 10 - - - -
 
Date/Time
EST
Temp
°C
Wind Pressure Rain since
9am
mm
Weather Cloud Vis
km
Sea
Height
m
Swell
Dir  Spd
kts
Gust
kts
hPa Trend Height
m
Period
s
Dir
23/11:30pm 9.3 SSW 12 19 1016.5 - 3.8 - Partly cloudy 10 - - - -
23/11:00pm 9.5 SSW 12 16 1016.3 - 3.8 - Partly cloudy 10 - - - -
23/10:58pm 9.5 SSW 12 16 1016.3 - 3.8 - Partly cloudy 10 - - - -
23/10:48pm 9.3 SSW 12 17 1016.3 - 3.8 - Partly cloudy 5 - - - -
23/10:34pm 9.2 SSW 14 20 1016.3 - 3.6 - Partly cloudy 5 - - - -
23/10:31pm 9.2 SSW 14 22 1016.3 - 3.6 - Partly cloudy 5 - - - -
23/10:30pm 9.2 SSW 14 22 1016.3 - 3.6 - Partly cloudy 6 - - - -
23/10:25pm 9.5 SSW 14 22 1016.2 - 3.2 - Partly cloudy 10 - - - -
23/10:00pm 10.1 SSW 15 20 1016.0 - 3.2 - Partly cloudy 10 - - - -
23/09:33pm 10.3 SW 16 21 1015.7 - 3.2 - Partly cloudy 10 - - - -
23/09:32pm 10.2 SW 16 22 1015.7 - 3.2 - Partly cloudy 10 - - - -
23/09:30pm 10.2 SW 17 22 1015.7 - 3.2 - Partly cloudy 10 - - - -
23/09:21pm 10.4 SW 18 24 1015.5 - 3.2 - Partly cloudy 10 - - - -
23/09:12pm 10.5 W 10 22 1015.5 - 3.2 - Partly cloudy 10 - - - -
23/09:00pm 10.3 WNW 8 10 1015.2 - 3.2 Showers Mostly cloudy 10 - - - -
23/08:30pm 10.5 WNW 8 11 1014.9 - 3.2 - Partly cloudy 10 - - - -
23/08:00pm 10.7 WNW 9 11 1014.8 - 3.2 - Partly cloudy 10 - - - -
23/07:45pm 10.7 WNW 10 14 1014.7 - 3.2 - Partly cloudy 10 - - - -
23/07:33pm 10.7 W 12 16 1014.7 - 3.2 - Partly cloudy 5 - - - -
23/07:30pm 10.8 W 11 16 1014.7 - 3.2 - Partly cloudy 7 - - - -
23/07:29pm 10.8 W 12 16 1014.7 - 3.0 - Partly cloudy 7 - - - -
23/07:07pm 10.8 W 10 15 1014.5 - 2.2 - Partly cloudy 5 - - - -
23/07:00pm 10.9 W 10 12 1014.3 - 1.8 - Partly cloudy 10 - - - -
23/06:54pm 10.9 W 11 14 1014.1 - 1.8 - Partly cloudy 10 - - - -
23/06:30pm 11.0 WSW 13 19 1013.9 - 1.8 - Partly cloudy 10 - - - -
23/06:21pm 11.0 W 10 14 1013.8 - 1.8 - Partly cloudy 10 - - - -
23/06:15pm 10.9 W 10 14 1013.8 - 1.8 - Partly cloudy 10 - - - -
23/06:04pm 10.8 W 8 12 1013.6 - 1.2 - Partly cloudy 5 - - - -
23/06:00pm 10.9 WNW 7 11 1013.5 - 0.2 Rain Cloudy 10 - - - -
23/05:30pm 11.0 NW 11 15 1013.0 - 0.0 - Partly cloudy 10 - - - -
23/05:00pm 11.9 NW 13 16 1012.9 - 0.0 - - 10 - - - -
23/04:30pm 12.8 NW 13 17 1013.1 - 0.0 - - 10 - - - -
23/04:00pm 13.0 NW 13 18 1013.1 - 0.0 - - 10 - - - -
23/03:30pm 13.1 NW 14 17 1013.2 - 0.0 - - 10 - - - -
23/03:00pm 12.9 NW 14 21 1013.0 - 0.0 - Mostly cloudy 10 - - - -
23/02:30pm 12.9 NW 16 21 1013.0 - 0.0 - Partly cloudy 10 - - - -
23/02:00pm 12.6 NW 17 23 1013.2 - 0.0 - Partly cloudy 10 - - - -
23/01:30pm 12.6 NW 15 20 1013.5 - 0.0 - Partly cloudy 10 - - - -
23/01:00pm 11.8 NW 13 18 1013.6 - 0.0 - Partly cloudy 10 - - - -
23/12:30pm 11.4 NW 14 19 1014.3 - 0.0 - Partly cloudy 10 - - - -
23/12:00pm 11.1 NNW 14 20 1014.5 - 0.0 Showers Cloudy 10 - - - -
23/11:36am 11.2 NNW 16 26 1014.9 - 0.0 - Cloudy 10 - - - -
23/11:30am 11.2 NNW 16 22 1015.0 - 0.0 - Partly cloudy 10 - - - -
23/11:00am 10.4 NNW 16 21 1015.4 - 0.0 - Cloudy 10 - - - -
23/10:30am 10.0 NNW 14 20 1015.7 - 0.0 - Partly cloudy 10 - - - -
23/10:00am 10.3 N 14 19 1015.5 - 0.0 - Partly cloudy 10 - - - -
23/09:30am 9.6 N 15 19 1015.9 - 0.0 - - 10 - - - -
23/09:00am 9.0 N 14 21 1016.1 - 0.0 - - 10 - - - -
23/08:30am 8.1 N 13 17 1016.3 - 0.0 - - 10 - - - -
23/08:00am 7.6 N 13 16 1016.4 - 0.0 - - 10 - - - -
23/07:30am 7.9 N 15 19 1016.5 - 0.0 - - 10 - - - -
23/07:00am 8.1 N 13 17 1016.5 - 0.0 - - 10 - - - -
23/06:30am 8.4 NNW 14 19 1016.7 - 0.0 - - 10 - - - -
23/06:00am 8.4 NNW 12 16 1016.9 - 0.0 - - 10 - - - -
23/05:30am 8.5 N 13 18 1016.9 - 0.0 - - 10 - - - -
23/05:00am 7.5 N 11 15 1017.2 - 0.0 - - 10 - - - -
23/04:30am 7.1 N 12 14 1017.3 - 0.0 - - 10 - - - -
23/04:00am 7.3 N 12 14 1017.6 - 0.0 - - 10 - - - -
23/03:30am 7.6 N 12 14 1018.1 - 0.0 - - 10 - - - -
23/03:00am 8.0 N 12 14 1018.4 - 0.0 - - 10 - - - -
23/02:30am 7.7 N 11 14 1018.9 - 0.0 - - 10 - - - -
23/02:00am 7.5 N 10 13 1019.3 - 0.0 - - 10 - - - -
23/01:30am 7.9 N 10 13 1019.2 - 0.0 - - 10 - - - -
23/01:00am 8.3 N 10 12 1019.4 - 0.0 - - 10 - - - -
23/12:30am 7.8 N 10 11 1020.0 - 0.0 - - 10 - - - -
23/12:00am 8.1 N 10 11 1020.5 - 0.0 - - 10 - - - -
 
Date/Time
EST
Temp
°C
Wind Pressure Rain since
9am
mm
Weather Cloud Vis
km
Sea
Height
m
Swell
Dir  Spd
kts
Gust
kts
hPa Trend Height
m
Period
s
Dir
22/11:30pm 8.9 N 11 13 1020.7 - 0.0 - - 10 - - - -
22/11:00pm 8.9 N 9 11 1021.0 - 0.0 - - 10 - - - -
22/10:30pm 8.9 N 9 11 1021.3 - 0.0 - - 10 - - - -
22/10:00pm 9.0 N 9 10 1021.6 - 0.0 - - 10 - - - -
22/09:30pm 9.5 N 9 11 1021.9 - 0.0 - Partly cloudy 10 - - - -
22/09:00pm 9.8 N 7 9 1022.1 - 0.0 - Cloudy 10 - - - -
22/08:30pm 9.4 N 6 7 1022.2 - 0.0 - Cloudy 10 - - - -
22/08:00pm 9.9 N 7 8 1022.2 - 0.0 - Cloudy 10 - - - -
22/07:30pm 11.0 N 8 9 1022.2 - 0.0 - Cloudy 10 - - - -
22/07:00pm 10.6 N 6 7 1022.4 - 0.0 - Cloudy 10 - - - -

Other Formats:

Comma delimited format used in spreadsheet applications
http://www.bom.gov.au/fwo/IDV60701/IDV60701.94837.axf

JavaScript Object Notation format (JSON) in row-major order
http://www.bom.gov.au/fwo/IDV60701/IDV60701.94837.json